Terminal Aerodrome Forecast
Issued by NWS

Home | Current Version | Previous Version | Text Only | Print | Product List | Glossary On
Versions: 1 2 3 4 5 6 7 8 9 10 11 12
000
FTUS43 KOAX 221100
TAFCDR
TAF
KCDR 221120Z 2212/2312 04006KT P6SM SKC
     FM221800 09010KT P6SM SKC
     FM230100 13010KT P6SM VCTS SCT050CB=

USA.gov is the U.S. government's official web portal to all federal, state and local government web resources and services.